Time;durP1;ratioP1;P1;durP2;ratioP2;P2;SDS_P1;SDS_P2;PMS_P1;PMS_P2;Temp;Humidity;BMP_temperature;BMP_pressure;BME280_temperature;BME280_humidity;BME280_pressure;Samples;Min_cycle;Max_cycle;Signal;HPM_P1;HPM_P2
2022/04/11 00:02:23;;;;;;;6.43;1.10;;;;;;;2.44;100.00;101394.41;5007145;28;20104;-75
2022/04/11 00:04:49;;;;;;;7.70;1.92;;;;;;;2.42;100.00;101378.69;4990081;28;20084;-75
2022/04/11 00:07:14;;;;;;;4.25;1.27;;;;;;;2.47;100.00;101386.31;5007202;28;20030;-73
2022/04/11 00:09:40;;;;;;;5.10;1.97;;;;;;;2.48;100.00;101375.69;4980344;28;20526;-74
2022/04/11 00:12:05;;;;;;;4.20;1.30;;;;;;;2.39;100.00;101367.47;4989369;28;20494;-74
2022/04/11 00:14:31;;;;;;;5.60;1.60;;;;;;;2.40;100.00;101375.28;4989446;28;20034;-75
2022/04/11 00:16:56;;;;;;;4.63;2.23;;;;;;;2.37;100.00;101372.03;4989089;28;20030;-75
2022/04/11 00:19:21;;;;;;;8.47;2.03;;;;;;;2.40;100.00;101380.56;5007453;28;20045;-75
2022/04/11 00:21:47;;;;;;;6.57;1.50;;;;;;;2.41;100.00;101370.88;4989351;28;20113;-75
2022/04/11 00:24:12;;;;;;;2.90;1.33;;;;;;;2.47;100.00;101381.03;4983013;28;20119;-76
2022/04/11 00:26:37;;;;;;;4.03;1.60;;;;;;;2.50;100.00;101384.31;4989966;28;20074;-75
2022/04/11 00:29:03;;;;;;;4.27;1.50;;;;;;;2.56;100.00;101384.91;4973097;28;20040;-75
2022/04/11 00:31:31;;;;;;;6.03;1.87;;;;;;;2.64;100.00;101390.53;4973036;28;20497;-75
2022/04/11 00:33:57;;;;;;;4.97;1.20;;;;;;;2.64;100.00;101385.25;5007154;28;20488;-75
2022/04/11 00:36:22;;;;;;;5.32;1.45;;;;;;;2.60;100.00;101396.94;4989418;28;20053;-74
2022/04/11 00:38:49;;;;;;;6.43;2.38;;;;;;;2.57;100.00;101400.59;4973586;28;20395;-73
2022/04/11 00:41:14;;;;;;;9.13;1.80;;;;;;;2.58;100.00;101401.47;4989032;28;20038;-74
2022/04/11 00:43:41;;;;;;;6.57;1.53;;;;;;;2.57;100.00;101391.84;5005760;28;20045;-74
2022/04/11 00:46:08;;;;;;;9.32;2.03;;;;;;;2.51;100.00;101395.72;4989208;28;20608;-74
2022/04/11 00:48:35;;;;;;;6.85;2.97;;;;;;;2.50;100.00;101391.38;4989320;28;20053;-74
2022/04/11 00:51:14;;;;;;;6.97;1.40;;;;;;;2.50;100.00;101392.22;4988709;28;20099;-74
2022/04/11 00:53:44;;;;;;;4.88;1.55;;;;;;;2.48;100.00;101393.25;5006771;28;20045;-74
2022/04/11 00:56:11;;;;;;;5.18;1.17;;;;;;;2.56;100.00;101391.03;4988670;28;20048;-74
2022/04/11 00:58:38;;;;;;;5.03;1.25;;;;;;;2.61;100.00;101393.38;4972914;28;20022;-74
2022/04/11 01:01:05;;;;;;;2.75;1.30;;;;;;;2.55;100.00;101394.56;4985275;28;20574;-74
2022/04/11 01:03:32;;;;;;;3.78;1.00;;;;;;;2.59;100.00;101389.97;4988884;28;20510;-74
2022/04/11 01:05:57;;;;;;;8.15;1.58;;;;;;;2.56;100.00;101393.66;4988999;28;20497;-74
2022/04/11 01:08:24;;;;;;;5.43;1.10;;;;;;;2.53;100.00;101397.34;4989065;28;20030;-74
2022/04/11 01:10:51;;;;;;;4.40;1.15;;;;;;;2.58;100.00;101388.28;4971767;28;20115;-74
2022/04/11 01:13:16;;;;;;;5.53;1.33;;;;;;;2.57;100.00;101407.69;4983885;28;20028;-74
2022/04/11 01:15:55;;;;;;;4.70;1.52;;;;;;;2.57;100.00;101403.25;4973087;28;20037;-74
2022/04/11 01:18:21;;;;;;;6.13;1.27;;;;;;;2.56;100.00;101395.44;4982024;28;20040;-74
2022/04/11 01:20:46;;;;;;;4.57;1.40;;;;;;;2.59;100.00;101395.25;4972670;28;20570;-74
2022/04/11 01:23:13;;;;;;;;;;;;;;;2.69;100.00;101402.50;4973276;28;20356;-73
2022/04/11 01:25:39;;;;;;;4.63;1.13;;;;;;;2.64;100.00;101395.81;4973054;28;20004;-74
2022/04/11 01:28:05;;;;;;;5.22;1.55;;;;;;;2.67;100.00;101392.97;4981026;28;20080;-74
2022/04/11 01:30:31;;;;;;;5.40;1.27;;;;;;;2.66;100.00;101396.56;5006262;28;20018;-74
2022/04/11 01:32:56;;;;;;;4.05;1.30;;;;;;;2.62;100.00;101395.94;5006471;28;20077;-74
2022/04/11 01:35:24;;;;;;;4.57;1.70;;;;;;;2.57;100.00;101397.13;4988867;28;20026;-77
2022/04/11 01:37:54;;;;;;;3.25;1.38;;;;;;;2.57;100.00;101403.25;4986163;28;20096;-74
2022/04/11 01:40:20;;;;;;;2.22;1.00;;;;;;;2.60;100.00;101404.84;4988628;28;20426;-74
2022/04/11 01:42:45;;;;;;;4.97;1.25;;;;;;;2.59;100.00;101397.88;4972386;28;20022;-75
2022/04/11 01:45:13;;;;;;;2.38;1.33;;;;;;;2.57;100.00;101400.59;4970517;28;20029;-74
2022/04/11 01:47:40;;;;;;;3.42;1.45;;;;;;;2.58;100.00;101410.22;4972755;28;20030;-74
2022/04/11 01:50:07;;;;;;;4.78;1.30;;;;;;;2.59;100.00;101405.78;5006218;28;20065;-74
2022/04/11 01:52:33;;;;;;;3.40;1.20;;;;;;;2.62;100.00;101403.84;4988149;28;20018;-75
2022/04/11 01:55:01;;;;;;;4.20;1.45;;;;;;;2.61;100.00;101398.63;4972212;28;20512;-74
2022/04/11 01:57:26;;;;;;;2.58;1.30;;;;;;;2.63;100.00;101402.03;4972486;28;20030;-74
2022/04/11 01:59:52;;;;;;;3.70;1.10;;;;;;;2.62;100.00;101401.19;4972379;28;20034;-75
2022/04/11 02:02:17;;;;;;;3.17;1.27;;;;;;;2.59;100.00;101397.88;4971829;28;20026;-75
2022/04/11 02:04:43;;;;;;;5.80;1.53;;;;;;;2.62;100.00;101395.06;5006140;28;20368;-74
2022/04/11 02:07:08;;;;;;;5.57;1.42;;;;;;;2.59;100.00;101396.09;4988575;28;20162;-75
2022/04/11 02:09:34;;;;;;;2.72;1.30;;;;;;;2.60;100.00;101391.66;4972417;28;20037;-74
2022/04/11 02:11:59;;;;;;;9.97;3.50;;;;;;;2.62;100.00;101395.06;4971909;28;20060;-75
2022/04/11 02:14:25;;;;;;;7.38;2.25;;;;;;;2.61;100.00;101388.09;4969051;28;20092;-75
2022/04/11 02:16:50;;;;;;;5.60;1.57;;;;;;;2.58;100.00;101394.41;4988319;28;20124;-74
2022/04/11 02:19:16;;;;;;;4.68;1.90;;;;;;;2.51;100.00;101396.56;4972106;28;20071;-74
2022/04/11 02:21:41;;;;;;;5.07;1.42;;;;;;;2.54;100.00;101396.38;4971687;28;20466;-74
2022/04/11 02:24:07;;;;;;;5.20;1.70;;;;;;;2.54;100.00;101393.75;4972335;28;20021;-75
2022/04/11 02:26:32;;;;;;;5.88;1.50;;;;;;;2.56;100.00;101395.44;4968887;28;20037;-75
2022/04/11 02:28:58;;;;;;;5.75;2.13;;;;;;;2.54;100.00;101399.00;4985845;28;20041;-74
2022/04/11 02:31:24;;;;;;;3.47;1.60;;;;;;;2.57;100.00;101407.69;4971698;28;20049;-75
2022/04/11 02:33:49;;;;;;;4.53;1.35;;;;;;;2.49;100.00;101416.91;4972172;28;20026;-75
2022/04/11 02:36:15;;;;;;;5.43;2.10;;;;;;;2.50;100.00;101408.03;4972458;28;20030;-75
2022/04/11 02:38:40;;;;;;;5.80;1.30;;;;;;;2.41;100.00;101410.41;4985022;28;20038;-75
2022/04/11 02:41:06;;;;;;;5.15;1.63;;;;;;;2.37;100.00;101412.38;4987881;28;20516;-76
2022/04/11 02:43:41;;;;;;;12.88;2.30;;;;;;;2.28;100.00;101397.13;4988313;28;20057;-75
2022/04/11 02:46:09;;;;;;;7.15;1.52;;;;;;;2.22;100.00;101405.41;4988298;28;20037;-75
2022/04/11 02:48:38;;;;;;;9.50;2.13;;;;;;;2.20;100.00;101402.00;4972345;28;20052;-76
2022/04/11 02:51:26;;;;;;;4.57;2.58;;;;;;;2.04;100.00;101405.56;4981322;28;20483;-75
2022/04/11 02:54:07;;;;;;;6.05;1.85;;;;;;;1.88;100.00;101402.16;4987989;28;20038;-75
2022/04/11 02:56:33;;;;;;;2.90;2.35;;;;;;;1.94;100.00;101404.41;4972155;28;20142;-75
2022/04/11 02:58:59;;;;;;;10.23;1.92;;;;;;;1.82;100.00;101397.22;4988144;28;20112;-76
2022/04/11 03:01:25;;;;;;;5.57;2.08;;;;;;;1.85;100.00;101403.19;4987467;28;20025;-76
2022/04/11 03:03:52;;;;;;;8.35;2.33;;;;;;;1.78;100.00;101408.88;4979946;28;20049;-76
2022/04/11 03:06:18;;;;;;;4.63;2.47;;;;;;;1.73;100.00;101403.88;4989905;28;20491;-75
2022/04/11 03:08:47;;;;;;;6.90;1.88;;;;;;;1.73;100.00;101410.94;4991584;28;20092;-76
2022/04/11 03:11:19;;;;;;;6.88;2.88;;;;;;;1.70;100.00;101414.59;4991169;28;20030;-76
2022/04/11 03:13:45;;;;;;;5.03;2.28;;;;;;;1.73;100.00;101418.84;4991631;28;20096;-76
2022/04/11 03:16:10;;;;;;;8.25;3.30;;;;;;;1.86;100.00;101425.09;4975605;28;20076;-76
2022/04/11 03:18:36;;;;;;;7.32;2.30;;;;;;;1.90;100.00;101416.09;4991669;28;20499;-76
2022/04/11 03:21:02;;;;;;;4.63;2.83;;;;;;;1.93;100.00;101421.16;4975016;28;20478;-76
2022/04/11 03:23:28;;;;;;;5.57;2.30;;;;;;;1.99;100.00;101418.19;4991779;28;20033;-75
2022/04/11 03:25:56;;;;;;;8.88;2.63;;;;;;;2.01;100.00;101420.69;4991685;28;20034;-75
2022/04/11 03:28:26;;;;;;;6.85;2.35;;;;;;;1.96;100.00;101423.59;4991533;28;20048;-76
2022/04/11 03:30:52;;;;;;;7.00;2.75;;;;;;;1.98;100.00;101426.16;4991168;28;20399;-75
2022/04/11 03:33:17;;;;;;;5.60;2.67;;;;;;;1.98;100.00;101421.72;4991260;28;20079;-75
2022/04/11 03:35:43;;;;;;;7.07;2.60;;;;;;;1.94;100.00;101414.94;4975263;28;20030;-76
2022/04/11 03:38:08;;;;;;;6.30;2.08;;;;;;;1.99;100.00;101422.56;4991562;28;20165;-75
2022/04/11 03:40:34;;;;;;;4.57;1.98;;;;;;;1.99;100.00;101417.31;4990961;28;20030;-76
2022/04/11 03:43:04;;;;;;;10.15;2.40;;;;;;;1.95;100.00;101408.75;4975567;28;20506;-75
2022/04/11 03:45:31;;;;;;;;;;;;;;;1.96;100.00;101418.34;4991372;28;20030;-75
2022/04/11 03:47:56;;;;;;;9.93;3.13;;;;;;;1.99;100.00;101417.31;4991268;28;20384;-75
2022/04/11 03:50:25;;;;;;;6.47;2.80;;;;;;;2.03;100.00;101424.94;4990756;28;20066;-76
2022/04/11 03:52:51;;;;;;;8.00;3.27;;;;;;;2.03;100.00;101421.47;4974898;28;20065;-75
2022/04/11 03:55:16;;;;;;;11.50;3.47;;;;;;;2.01;100.00;101429.44;4974499;28;20288;-75
2022/04/11 03:57:45;;;;;;;12.55;3.70;;;;;;;2.07;100.00;101425.63;4991039;28;20025;-75
2022/04/11 04:00:11;;;;;;;7.07;3.85;;;;;;;2.03;100.00;101424.09;4974210;28;20034;-75
2022/04/11 04:02:44;;;;;;;9.20;3.70;;;;;;;2.02;100.00;101435.56;5008590;28;20061;-76
2022/04/11 04:05:12;;;;;;;9.18;4.13;;;;;;;2.02;100.00;101431.16;4990811;28;20104;-76
2022/04/11 04:07:38;;;;;;;7.38;4.57;;;;;;;1.98;100.00;101431.41;4974794;28;20128;-76
2022/04/11 04:10:05;;;;;;;11.20;4.57;;;;;;;1.91;100.00;101430.94;4974605;28;20042;-76
2022/04/11 04:12:31;;;;;;;8.57;4.43;;;;;;;1.81;100.00;101430.63;4974326;28;20088;-76
2022/04/11 04:15:04;;;;;;;7.93;5.20;;;;;;;1.85;100.00;101428.66;4990736;28;20482;-77
2022/04/11 04:17:30;;;;;;;14.18;5.80;;;;;;;1.77;100.00;101436.16;4973942;28;20028;-77
2022/04/11 04:20:00;;;;;;;15.02;6.30;;;;;;;1.64;100.00;101428.13;4983063;28;20876;-76
2022/04/11 04:22:26;;;;;;;8.82;5.57;;;;;;;1.68;100.00;101430.47;4974059;28;20041;-75
2022/04/11 04:24:52;;;;;;;14.40;5.57;;;;;;;1.65;100.00;101425.38;4990563;28;20030;-76
2022/04/11 04:27:18;;;;;;;12.35;5.72;;;;;;;1.62;100.00;101432.63;4990510;28;20069;-77
2022/04/11 04:29:44;;;;;;;15.13;6.50;;;;;;;1.63;100.00;101432.53;4973823;28;20030;-76
2022/04/11 04:32:09;;;;;;;13.00;5.90;;;;;;;1.68;100.00;101432.25;4989160;28;21446;-76
2022/04/11 04:34:37;;;;;;;14.15;6.20;;;;;;;1.77;100.00;101439.63;4990508;28;20048;-76
2022/04/11 04:37:03;;;;;;;19.88;7.53;;;;;;;1.84;100.00;101445.38;4974594;28;20029;-76
2022/04/11 04:39:29;;;;;;;15.65;6.22;;;;;;;1.83;100.00;101433.19;4990052;28;20020;-75
2022/04/11 04:41:54;;;;;;;14.95;6.72;;;;;;;1.84;100.00;101445.38;4989480;28;20869;-76
2022/04/11 04:44:22;;;;;;;18.33;7.50;;;;;;;1.86;100.00;101440.88;4990371;28;20025;-76
2022/04/11 04:46:53;;;;;;;28.80;9.93;;;;;;;1.92;100.00;101452.84;4989889;28;20033;-77
2022/04/11 04:49:33;;;;;;;15.40;6.45;;;;;;;1.86;100.00;101454.06;4978720;28;20751;-76
2022/04/11 04:52:02;;;;;;;19.98;8.73;;;;;;;1.97;100.00;101458.72;4974159;28;20052;-76
2022/04/11 04:54:29;;;;;;;26.50;8.40;;;;;;;2.06;100.00;101464.28;4990554;28;20022;-75
2022/04/11 04:56:56;;;;;;;19.98;8.15;;;;;;;2.06;100.00;101460.78;4971280;28;20034;-78
2022/04/11 04:59:26;;;;;;;18.00;8.23;;;;;;;2.11;100.00;101467.50;4974394;28;20581;-76
2022/04/11 05:01:52;;;;;;;22.13;9.02;;;;;;;2.14;100.00;101463.81;4989614;28;20054;-77
2022/04/11 05:04:20;;;;;;;18.50;7.45;;;;;;;2.18;100.00;101465.34;4989941;28;20026;-77
2022/04/11 05:06:46;;;;;;;24.60;8.38;;;;;;;2.26;100.00;101473.63;4989870;28;20037;-76
2022/04/11 05:09:13;;;;;;;18.95;8.40;;;;;;;2.32;100.00;101473.28;4973744;28;20113;-76
2022/04/11 05:11:41;;;;;;;22.23;7.50;;;;;;;2.40;100.00;101486.00;4989446;28;20478;-75
2022/04/11 05:14:07;;;;;;;23.50;9.32;;;;;;;2.50;100.00;101487.13;4973493;28;20056;-76
2022/04/11 05:16:34;;;;;;;21.15;8.15;;;;;;;2.61;100.00;101483.84;4974012;28;20048;-76
2022/04/11 05:19:02;;;;;;;26.50;9.77;;;;;;;2.66;100.00;101480.94;4989556;28;20053;-77
2022/04/11 05:21:28;;;;;;;25.70;9.55;;;;;;;2.71;100.00;101486.75;4976530;28;20033;-76
2022/04/11 05:23:54;;;;;;;23.27;7.60;;;;;;;2.69;100.00;101483.38;5006957;28;20029;-75
2022/04/11 05:26:19;;;;;;;25.48;8.75;;;;;;;2.74;100.00;101486.59;4973236;28;20153;-76
2022/04/11 05:28:45;;;;;;;19.05;8.18;;;;;;;2.85;100.00;101491.19;4983026;28;20132;-76
2022/04/11 05:31:11;;;;;;;24.65;8.77;;;;;;;2.93;100.00;101483.69;4988079;28;20084;-75
2022/04/11 05:33:39;;;;;;;17.73;8.68;;;;;;;2.87;100.00;101473.50;4981365;28;20620;-76
2022/04/11 05:36:09;;;;;;;20.55;8.93;;;;;;;2.96;100.00;101468.50;4989121;28;20479;-75
2022/04/11 05:38:35;;;;;;;23.15;8.65;;;;;;;2.95;100.00;101465.97;4989209;28;20034;-76
2022/04/11 05:41:00;;;;;;;17.10;8.20;;;;;;;2.98;100.00;101470.22;4971596;28;20029;-75
2022/04/11 05:43:32;;;;;;;16.58;6.80;;;;;;;2.98;100.00;101470.22;4988952;28;20422;-76
2022/04/11 05:45:59;;;;;;;15.52;6.63;;;;;;;3.25;100.00;101468.44;4973106;28;20049;-75
2022/04/11 05:48:25;;;;;;;18.90;7.53;;;;;;;3.47;100.00;101473.22;4972542;28;20026;-75
2022/04/11 05:50:50;;;;;;;17.98;7.18;;;;;;;3.84;100.00;101467.31;4972191;28;20465;-75
2022/04/11 05:53:16;;;;;;;25.53;10.43;;;;;;;3.81;100.00;101471.84;4972622;28;20105;-76
2022/04/11 05:55:41;;;;;;;16.17;7.50;;;;;;;3.79;100.00;101463.19;5006723;28;20495;-75
2022/04/11 05:58:06;;;;;;;17.90;7.07;;;;;;;3.81;100.00;101455.16;4988977;28;20072;-75
2022/04/11 06:00:33;;;;;;;;;;;;;;;3.88;100.00;101458.25;4973917;28;20026;-74
2022/04/11 06:02:59;;;;;;;17.30;7.05;;;;;;;3.79;100.00;101457.91;4988683;28;19999;-75
2022/04/11 06:05:25;;;;;;;16.92;6.45;;;;;;;3.81;100.00;101456.00;4988522;28;20132;-75
2022/04/11 06:07:51;;;;;;;18.50;6.40;;;;;;;3.94;100.00;101448.13;4972418;28;20037;-75
2022/04/11 06:10:18;;;;;;;15.90;6.78;;;;;;;3.96;100.00;101455.94;4972253;28;20029;-75
2022/04/11 06:12:43;;;;;;;12.30;5.90;;;;;;;3.99;100.00;101464.50;4987437;28;20038;-75
2022/04/11 06:15:11;;;;;;;15.38;7.00;;;;;;;3.81;100.00;101463.06;4987806;28;20467;-75
2022/04/11 06:17:37;;;;;;;13.75;6.25;;;;;;;3.73;100.00;101460.94;4971717;28;20030;-76
2022/04/11 06:20:04;;;;;;;11.98;6.43;;;;;;;3.76;100.00;101452.81;4987943;28;20018;-76
2022/04/11 06:22:31;;;;;;;12.30;6.80;;;;;;;3.72;100.00;101454.00;4987532;28;20029;-76
2022/04/11 06:25:00;;;;;;;15.40;6.83;;;;;;;3.79;100.00;101455.28;4987987;28;20048;-76
2022/04/11 06:27:27;;;;;;;13.63;6.05;;;;;;;3.85;100.00;101455.81;4972159;28;20107;-75
2022/04/11 06:29:56;;;;;;;15.38;5.97;;;;;;;4.06;100.00;101467.59;4971712;28;20491;-76
2022/04/11 06:32:30;;;;;;;14.90;5.50;;;;;;;5.25;100.00;101478.78;4987083;28;20490;-77
2022/04/11 06:34:56;;;;;;;13.35;6.40;;;;;;;6.46;100.00;101479.53;4985606;28;20561;-78
2022/04/11 06:37:23;;;;;;;12.13;5.28;;;;;;;6.71;100.00;101468.72;4988204;28;20137;-76
2022/04/11 06:39:50;;;;;;;13.88;5.47;;;;;;;6.94;100.00;101463.44;4989074;28;20044;-77
2022/04/11 06:42:16;;;;;;;;;;;;;;;7.18;100.00;101439.38;4987671;28;20026;-77
2022/04/11 06:44:44;;;;;;;17.05;5.78;;;;;;;7.61;100.00;101415.47;4992629;28;19924;-77
2022/04/11 06:47:13;;;;;;;13.07;4.55;;;;;;;7.38;100.00;101387.31;4977213;28;20022;-76
2022/04/11 06:49:39;;;;;;;13.35;4.40;;;;;;;7.36;100.00;101358.19;4975928;28;20030;-77
2022/04/11 06:52:06;;;;;;;7.57;4.53;;;;;;;6.94;100.00;101334.19;4991676;28;20072;-77
2022/04/11 06:54:31;;;;;;;12.35;5.82;;;;;;;6.71;100.00;101335.19;5009847;28;20116;-76
2022/04/11 06:56:57;;;;;;;14.43;4.40;;;;;;;6.28;100.00;101334.16;4975139;28;20145;-76
2022/04/11 06:59:23;;;;;;;16.67;5.47;;;;;;;5.88;100.00;101337.22;4976235;28;20176;-77
2022/04/11 07:01:48;;;;;;;9.75;4.80;;;;;;;5.58;100.00;101350.13;4991561;28;20534;-77
2022/04/11 07:04:13;;;;;;;10.40;4.07;;;;;;;5.49;100.00;101365.75;4992098;28;20514;-77
2022/04/11 07:06:39;;;;;;;8.10;4.60;;;;;;;5.78;100.00;101393.66;5009822;28;20022;-78
2022/04/11 07:09:04;;;;;;;10.13;4.17;;;;;;;5.81;100.00;101399.59;4992231;28;20121;-77
2022/04/11 07:11:32;;;;;;;10.37;4.17;;;;;;;5.47;100.00;101388.84;4991661;28;20044;-77
2022/04/11 07:13:58;;;;;;;5.72;3.33;;;;;;;5.23;100.00;101398.59;4972992;28;20064;-78
2022/04/11 07:16:24;;;;;;;9.18;4.90;;;;;;;5.03;100.00;101413.28;4991159;28;20053;-77
2022/04/11 07:18:50;;;;;;;8.65;3.60;;;;;;;5.19;100.00;101429.75;5009664;28;20861;-77
2022/04/11 07:21:16;;;;;;;7.78;3.45;;;;;;;5.25;100.00;101437.25;4964176;28;20076;-77
2022/04/11 07:23:42;;;;;;;8.65;4.55;;;;;;;5.40;100.00;101442.38;4991995;28;20065;-76
2022/04/11 07:26:07;;;;;;;8.97;3.97;;;;;;;5.46;100.00;101456.03;5009061;28;20057;-77
2022/04/11 07:28:33;;;;;;;6.80;3.13;;;;;;;5.35;100.00;101440.06;4991901;28;20066;-77
2022/04/11 07:30:58;;;;;;;11.43;3.23;;;;;;;5.54;100.00;101433.44;5008061;28;20030;-77
2022/04/11 07:33:23;;;;;;;8.77;3.00;;;;;;;6.00;100.00;101430.88;4991359;28;20037;-77
2022/04/11 07:35:49;;;;;;;7.37;3.20;;;;;;;6.36;100.00;101428.19;4991705;28;20029;-77
2022/04/11 07:38:14;;;;;;;10.30;3.63;;;;;;;6.70;100.00;101424.59;4991375;28;20034;-77
2022/04/11 07:40:39;;;;;;;9.13;3.40;;;;;;;7.17;100.00;101416.47;5008734;28;20038;-77
2022/04/11 07:43:05;;;;;;;8.90;2.87;;;;;;;7.48;100.00;101400.69;4990867;28;20034;-75
2022/04/11 07:45:30;;;;;;;6.63;3.10;;;;;;;7.89;100.00;101367.13;4971845;28;20042;-76
2022/04/11 07:47:55;;;;;;;11.00;4.93;;;;;;;7.81;100.00;101339.38;4963780;28;20060;-76
2022/04/11 07:50:21;;;;;;;7.20;3.07;;;;;;;7.59;100.00;101286.38;5008028;28;20545;-76
2022/04/11 07:52:46;;;;;;;9.20;2.60;;;;;;;7.97;100.00;101280.41;5007648;28;20541;-76
2022/04/11 07:55:15;;;;;;;6.20;2.40;;;;;;;7.89;100.00;101288.22;5008513;28;20037;-76
2022/04/11 07:57:41;;;;;;;9.07;1.83;;;;;;;8.03;100.00;101229.38;5008404;28;20038;-76
2022/04/11 08:00:07;;;;;;;3.85;1.85;;;;;;;7.90;100.00;101183.56;5008139;28;20026;-76
2022/04/11 08:02:38;;;;;;;6.43;2.28;;;;;;;8.49;100.00;101215.66;4991474;28;20045;-77
2022/04/11 08:05:05;;;;;;;9.33;2.47;;;;;;;8.66;100.00;101231.81;5008252;28;20049;-76
2022/04/11 08:07:32;;;;;;;5.05;2.20;;;;;;;8.90;98.34;101190.63;4990798;28;20281;-76
2022/04/11 08:09:59;;;;;;;7.30;2.30;;;;;;;9.07;96.38;101181.06;4974267;28;20034;-77
2022/04/11 08:12:24;;;;;;;4.85;2.85;;;;;;;9.67;89.54;101107.00;4990287;28;20506;-77
2022/04/11 08:14:49;;;;;;;4.97;2.37;;;;;;;9.57;89.54;101095.50;4990590;28;20061;-77
2022/04/11 08:17:15;;;;;;;6.00;2.40;;;;;;;9.05;87.13;101034.72;4987408;28;20479;-76
2022/04/11 08:19:40;;;;;;;6.70;1.90;;;;;;;9.23;87.74;101092.59;4990515;28;20049;-76
2022/04/11 08:22:06;;;;;;;2.30;1.40;;;;;;;8.66;87.49;101048.16;4990254;28;20072;-76
2022/04/11 08:24:32;;;;;;;5.57;2.05;;;;;;;8.44;87.35;101046.63;5007932;28;20060;-76
2022/04/11 08:26:58;;;;;;;3.58;1.73;;;;;;;9.02;88.93;101151.38;5008073;28;20029;-77
2022/04/11 08:29:27;;;;;;;5.38;1.30;;;;;;;8.84;85.60;101058.88;4990042;28;20525;-76
2022/04/11 08:31:53;;;;;;;4.82;1.50;;;;;;;8.27;85.82;101034.00;5007413;28;20029;-76
2022/04/11 08:34:18;;;;;;;6.15;1.35;;;;;;;9.14;84.38;101101.44;5007821;28;20036;-77
2022/04/11 08:36:44;;;;;;;8.03;1.77;;;;;;;10.34;83.13;101157.44;5007743;28;20042;-76
2022/04/11 08:39:10;;;;;;;5.22;1.00;;;;;;;10.58;76.55;100996.66;4989785;28;20061;-76
2022/04/11 08:41:36;;;;;;;;;;;;;;;11.34;76.19;101068.06;4990351;28;20153;-77
2022/04/11 08:44:04;;;;;;;;;;;;;;;10.75;71.56;100880.13;4990508;28;19937;-77
2022/04/11 08:46:30;;;;;;;6.05;1.25;;;;;;;10.45;69.55;100825.41;4990155;28;20813;-77
2022/04/11 08:48:58;;;;;;;5.28;0.75;;;;;;;9.76;72.76;100869.78;4990856;28;20042;-76
2022/04/11 08:51:24;;;;;;;6.70;1.10;;;;;;;9.03;74.34;100876.06;4989797;28;20033;-77
2022/04/11 08:53:51;;;;;;;4.50;1.23;;;;;;;9.09;75.46;100934.06;4989953;28;20045;-77
2022/04/11 08:56:17;;;;;;;3.72;0.98;;;;;;;8.79;77.21;100965.28;4982250;28;20029;-77
2022/04/11 08:58:42;;;;;;;3.78;0.90;;;;;;;8.79;77.50;100986.59;4990474;28;20121;-77
2022/04/11 09:01:08;;;;;;;3.13;1.20;;;;;;;8.93;78.47;101033.22;4989605;28;20491;-77
2022/04/11 09:03:33;;;;;;;3.73;0.93;;;;;;;8.77;79.16;101038.31;4989702;28;20038;-77
2022/04/11 09:06:10;;;;;;;2.97;1.13;;;;;;;8.46;79.64;101017.22;4974169;28;20022;-77
2022/04/11 09:08:52;;;;;;;3.97;1.52;;;;;;;8.19;80.88;101047.16;4990714;28;20048;-76
2022/04/11 09:11:33;;;;;;;6.75;1.30;;;;;;;8.07;83.92;101133.38;4999915;28;20495;-78
2022/04/11 09:14:00;;;;;;;6.75;1.23;;;;;;;7.97;83.19;101102.28;4988364;28;20088;-77
2022/04/11 09:16:26;;;;;;;2.10;1.00;;;;;;;8.39;85.41;101203.16;4990499;28;20026;-77
2022/04/11 09:18:54;;;;;;;3.90;0.80;;;;;;;8.15;85.38;101168.94;4990408;28;20527;-77
2022/04/11 09:21:22;;;;;;;7.15;1.35;;;;;;;8.18;87.19;101189.94;4974088;28;20029;-77
2022/04/11 09:23:48;;;;;;;4.55;1.75;;;;;;;9.05;84.45;101210.50;4974374;28;20487;-77
2022/04/11 09:26:23;;;;;;;3.63;1.05;;;;;;;8.98;80.45;101080.72;5064309;28;20389;-77
2022/04/11 09:28:58;;;;;;;3.85;1.20;;;;;;;8.88;80.09;101078.91;5063142;28;20039;-77
2022/04/11 09:31:24;;;;;;;4.35;1.10;;;;;;;8.79;82.32;101124.22;5055479;28;20070;-78
2022/04/11 09:33:49;;;;;;;2.47;0.98;;;;;;;8.60;82.97;101131.22;5046442;28;20866;-76
2022/04/11 09:36:16;;;;;;;3.70;1.13;;;;;;;8.60;80.89;101071.81;5046335;28;20493;-78
2022/04/11 09:38:41;;;;;;;;;;;;;;;9.16;79.01;101089.66;5046522;28;20480;-77
2022/04/11 09:41:07;;;;;;;2.20;0.93;;;;;;;9.12;77.22;101020.81;5062780;28;19912;-78
2022/04/11 09:43:34;;;;;;;6.90;1.30;;;;;;;9.06;77.31;101030.22;5046798;28;20090;-78
2022/04/11 09:46:03;;;;;;;3.72;1.15;;;;;;;7.97;75.82;100862.97;5062824;28;20047;-76
2022/04/11 09:48:37;;;;;;;3.03;1.10;;;;;;;7.88;79.88;101017.19;5062788;28;20033;-77
2022/04/11 09:51:09;;;;;;;17.20;2.90;;;;;;;8.60;79.85;101120.56;5062627;28;20060;-78
2022/04/11 09:53:35;;;;;;;3.85;1.20;;;;;;;9.98;76.30;101133.34;5046774;28;20020;-78
2022/04/11 09:56:06;;;;;;;4.47;0.98;;;;;;;11.19;73.05;101139.13;5045965;28;20493;-77
2022/04/11 09:58:39;;;;;;;3.80;0.90;;;;;;;12.13;67.23;100999.13;5061025;28;20064;-78
2022/04/11 10:01:06;;;;;;;5.45;1.90;;;;;;;11.81;62.29;100776.00;5045275;28;20033;-80
2022/04/11 10:03:31;;;;;;;6.07;1.08;;;;;;;12.70;62.22;100919.72;5064437;28;20028;-78
2022/04/11 10:05:58;;;;;;;1.87;0.90;;;;;;;12.09;60.18;100738.19;5064182;28;20074;-77
2022/04/11 10:08:25;;;;;;;5.82;1.88;;;;;;;11.70;62.14;100795.06;5061748;28;20286;-78
2022/04/11 10:10:51;;;;;;;3.55;0.82;;;;;;;10.82;62.54;100710.22;5062706;28;20078;-77
2022/04/11 10:13:16;;;;;;;2.65;0.77;;;;;;;9.67;67.82;100800.41;5062685;28;20432;-78
2022/04/11 10:15:46;;;;;;;5.05;0.98;;;;;;;9.42;68.23;100810.03;5043279;28;20109;-77
2022/04/11 10:18:14;;;;;;;4.60;1.00;;;;;;;8.97;69.90;100858.03;5062984;28;20020;-78
2022/04/11 10:20:43;;;;;;;3.42;0.80;;;;;;;9.62;70.66;100993.78;5045825;28;20024;-77
2022/04/11 10:23:15;;;;;;;4.47;1.05;;;;;;;10.30;66.62;100894.53;5045377;28;20039;-78
2022/04/11 10:25:48;;;;;;;5.18;1.10;;;;;;;10.72;65.68;100891.97;5043632;28;20502;-78
2022/04/11 10:28:24;;;;;;;2.60;0.90;;;;;;;11.29;64.35;100920.72;5062855;28;20477;-78
2022/04/11 10:31:09;;;;;;;2.45;1.20;;;;;;;11.87;65.40;101031.38;5047048;28;20033;-78
2022/04/11 10:33:52;;;;;;;4.57;1.10;;;;;;;12.41;60.19;100841.63;5062588;28;20028;-78
2022/04/11 10:36:31;;;;;;;2.15;1.10;;;;;;;12.32;60.25;100823.94;5050013;28;20036;-77
2022/04/11 10:39:14;;;;;;;1.30;0.90;;;;;;;11.25;57.54;100526.50;5047105;28;20037;-78
2022/04/11 10:41:58;;;;;;;3.90;1.00;;;;;;;12.39;57.23;100751.78;5049018;28;20035;-77
2022/04/11 10:44:33;;;;;;;2.53;1.25;;;;;;;12.66;55.55;100660.22;5041994;28;20033;-78
2022/04/11 10:47:08;;;;;;;2.95;1.05;;;;;;;12.43;58.46;100785.22;5049024;28;20497;-78
2022/04/11 10:49:48;;;;;;;5.35;1.50;;;;;;;11.52;58.33;100626.81;5050209;28;20082;-77
2022/04/11 10:52:31;;;;;;;3.05;1.05;;;;;;;11.80;58.29;100715.50;5031277;28;20082;-78
2022/04/11 10:55:18;;;;;;;1.45;1.00;;;;;;;13.12;56.67;100805.97;5045455;28;20323;-78
2022/04/11 10:57:46;;;;;;;2.97;1.13;;;;;;;12.32;54.70;100544.69;5031951;28;20041;-78
2022/04/11 11:00:12;;;;;;;3.58;0.80;;;;;;;11.58;55.92;100513.00;5048269;28;20453;-78
2022/04/11 11:02:50;;;;;;;;;;;;;;;10.91;58.62;100575.69;5049092;28;20058;-78
2022/04/11 11:05:36;;;;;;;1.40;0.80;;;;;;;10.55;60.59;100661.44;5024412;28;20282;-77
2022/04/11 11:08:11;;;;;;;2.72;0.70;;;;;;;10.26;62.06;100698.38;5032129;28;20534;-78
2022/04/11 11:10:41;;;;;;;4.10;1.25;;;;;;;9.92;63.08;100701.88;5047962;28;20119;-77
2022/04/11 11:13:30;;;;;;;3.00;1.10;;;;;;;10.35;65.35;100868.22;5048498;28;20055;-78
2022/04/11 11:15:59;;;;;;;3.97;0.90;;;;;;;9.93;62.98;100708.91;5046994;28;20044;-77
2022/04/11 11:18:25;;;;;;;2.60;1.05;;;;;;;10.34;63.25;100805.16;5048520;28;20040;-78
2022/04/11 11:20:58;;;;;;;5.15;1.30;;;;;;;10.01;62.67;100711.59;5031052;28;20029;-78
2022/04/11 11:23:31;;;;;;;1.88;0.63;;;;;;;9.94;62.50;100703.41;5030992;28;20048;-78
2022/04/11 11:26:10;;;;;;;3.63;0.90;;;;;;;9.79;62.78;100706.84;5028559;28;20028;-78
2022/04/11 11:28:36;;;;;;;4.22;1.83;;;;;;;9.64;63.75;100728.72;5047881;28;20119;-77
2022/04/11 11:31:01;;;;;;;;;;;;;;;9.27;63.25;100655.22;5029506;28;20024;-78